Time;durP1;ratioP1;P1;durP2;ratioP2;P2;SDS_P1;SDS_P2;PMS_P1;PMS_P2;Temp;Humidity;BMP_temperature;BMP_pressure;BME280_temperature;BME280_humidity;BME280_pressure;Samples;Min_cycle;Max_cycle;Signal;HPM_P1;HPM_P2
2024/01/07 00:01:55;;;;;;;0.00;0.00;;;6.00;76.50;;;;;;5085897;28;20203;-40
2024/01/07 00:04:22;;;;;;;0.00;0.00;;;6.00;76.50;;;;;;5082503;28;20286;-40
2024/01/07 00:06:49;;;;;;;0.00;0.00;;;6.00;76.30;;;;;;5084226;28;20246;-40
2024/01/07 00:09:17;;;;;;;0.00;0.00;;;6.00;76.50;;;;;;5084673;28;20211;-40
2024/01/07 00:11:49;;;;;;;0.00;0.00;;;6.00;76.40;;;;;;5086240;28;20734;-40
2024/01/07 00:14:16;;;;;;;0.00;0.00;;;6.00;76.50;;;;;;5088119;28;20207;-40
2024/01/07 00:16:44;;;;;;;0.00;0.00;;;6.00;76.50;;;;;;5085712;28;20187;-40
2024/01/07 00:19:11;;;;;;;0.00;0.00;;;6.10;76.60;;;;;;5086625;28;20576;-41
2024/01/07 00:21:39;;;;;;;0.00;0.00;;;6.00;76.50;;;;;;5086437;28;20195;-39
2024/01/07 00:24:06;;;;;;;0.00;0.00;;;6.10;76.60;;;;;;5086841;28;20276;-40
2024/01/07 00:26:33;;;;;;;0.00;0.00;;;6.10;76.70;;;;;;5086038;28;20226;-40
2024/01/07 00:29:02;;;;;;;0.00;0.00;;;6.10;76.70;;;;;;5085641;28;20195;-40
2024/01/07 00:31:32;;;;;;;0.00;0.00;;;6.20;76.80;;;;;;5087887;28;20203;-40
2024/01/07 00:34:02;;;;;;;0.00;0.00;;;6.20;76.80;;;;;;5085618;28;20199;-40
2024/01/07 00:36:31;;;;;;;0.00;0.00;;;6.20;76.60;;;;;;5083525;28;20680;-40
2024/01/07 00:39:01;;;;;;;0.00;0.00;;;6.20;76.50;;;;;;5087572;28;20575;-40
2024/01/07 00:41:30;;;;;;;0.00;0.00;;;6.10;76.40;;;;;;5089482;28;20191;-40
2024/01/07 00:43:59;;;;;;;0.00;0.00;;;6.10;76.40;;;;;;5090774;28;20238;-40
2024/01/07 00:46:27;;;;;;;0.00;0.00;;;6.10;76.30;;;;;;5089054;28;20965;-40
2024/01/07 00:48:56;;;;;;;0.00;0.00;;;6.00;76.20;;;;;;5089412;28;20684;-41
2024/01/07 00:51:26;;;;;;;0.00;0.00;;;6.00;76.00;;;;;;5089950;28;20219;-40
2024/01/07 00:53:53;;;;;;;0.00;0.00;;;6.00;76.20;;;;;;5086808;28;20610;-40
2024/01/07 00:56:20;;;;;;;0.00;0.00;;;5.90;76.10;;;;;;5085832;28;20652;-39
2024/01/07 00:58:47;;;;;;;0.00;0.00;;;5.90;76.10;;;;;;5087580;28;20203;-40
2024/01/07 01:01:14;;;;;;;0.00;0.00;;;5.90;76.10;;;;;;5087314;28;20225;-39
2024/01/07 01:03:42;;;;;;;0.00;0.00;;;5.90;76.20;;;;;;5084798;28;20206;-39
2024/01/07 01:06:12;;;;;;;0.00;0.00;;;5.80;76.00;;;;;;5085277;28;20238;-40
2024/01/07 01:08:42;;;;;;;0.00;0.00;;;5.80;75.80;;;;;;5086529;28;20209;-40
2024/01/07 01:11:12;;;;;;;0.00;0.00;;;5.70;75.80;;;;;;5086030;28;20223;-39
2024/01/07 01:13:39;;;;;;;0.00;0.00;;;5.70;75.80;;;;;;5085473;28;20202;-39
2024/01/07 01:16:07;;;;;;;0.00;0.00;;;5.60;75.60;;;;;;5087191;28;20179;-39
2024/01/07 01:18:34;;;;;;;0.00;0.00;;;5.50;75.50;;;;;;5051310;28;20187;-40
2024/01/07 01:21:04;;;;;;;0.00;0.00;;;5.50;75.60;;;;;;5086241;28;20219;-39
2024/01/07 01:23:33;;;;;;;0.00;0.00;;;5.50;75.70;;;;;;5084102;28;20218;-39
2024/01/07 01:26:05;;;;;;;0.00;0.00;;;5.40;75.70;;;;;;5086361;28;20202;-39
2024/01/07 01:28:33;;;;;;;0.00;0.00;;;5.40;75.70;;;;;;5086445;28;20194;-39
2024/01/07 01:31:00;;;;;;;0.00;0.00;;;5.40;75.70;;;;;;5082229;28;20700;-39
2024/01/07 01:33:30;;;;;;;0.00;0.00;;;5.30;75.70;;;;;;5087884;28;20301;-39
2024/01/07 01:36:03;;;;;;;0.00;0.00;;;5.30;75.60;;;;;;5090252;28;20195;-39
2024/01/07 01:38:31;;;;;;;0.00;0.00;;;5.30;75.60;;;;;;5090188;28;20627;-39
2024/01/07 01:40:58;;;;;;;0.00;0.00;;;5.20;75.60;;;;;;5090052;28;20567;-40
2024/01/07 01:43:28;;;;;;;0.00;0.00;;;5.20;75.60;;;;;;5088774;28;20203;-41
2024/01/07 01:45:57;;;;;;;0.00;0.00;;;5.20;75.60;;;;;;5090120;28;20302;-40
2024/01/07 01:48:28;;;;;;;0.00;0.00;;;5.20;75.60;;;;;;5087643;28;20554;-39
2024/01/07 01:50:58;;;;;;;0.00;0.00;;;5.20;75.70;;;;;;5087531;28;20215;-39
2024/01/07 01:53:29;;;;;;;0.00;0.00;;;5.20;75.70;;;;;;5084423;28;20446;-39
2024/01/07 01:55:57;;;;;;;0.00;0.00;;;5.10;75.70;;;;;;5084997;28;20758;-39
2024/01/07 01:58:26;;;;;;;0.00;0.00;;;5.20;75.60;;;;;;5081550;28;20571;-39
2024/01/07 02:00:53;;;;;;;0.00;0.00;;;5.10;75.60;;;;;;5072002;28;20745;-39
2024/01/07 02:03:23;;;;;;;0.00;0.00;;;5.10;75.70;;;;;;5079738;28;20264;-40
2024/01/07 02:05:50;;;;;;;0.00;0.00;;;5.10;75.70;;;;;;5064670;28;20259;-39
2024/01/07 02:08:23;;;;;;;0.00;0.00;;;5.10;75.70;;;;;;5079372;28;20661;-39
2024/01/07 02:10:53;;;;;;;0.00;0.00;;;5.10;75.90;;;;;;5064501;28;20215;-39
2024/01/07 02:13:27;;;;;;;0.00;0.00;;;5.20;75.90;;;;;;5081475;28;20208;-39
2024/01/07 02:15:54;;;;;;;0.00;0.00;;;5.20;76.00;;;;;;5055905;28;20204;-39
2024/01/07 02:18:21;;;;;;;0.00;0.00;;;5.20;76.00;;;;;;5064717;28;20191;-39
2024/01/07 02:20:49;;;;;;;0.00;0.00;;;5.20;75.90;;;;;;5066322;28;20202;-39
2024/01/07 02:23:18;;;;;;;0.00;0.00;;;5.20;75.90;;;;;;5071157;28;20557;-40
2024/01/07 02:25:45;;;;;;;0.00;0.00;;;5.20;75.90;;;;;;5062190;28;20664;-39
2024/01/07 02:28:12;;;;;;;0.00;0.00;;;5.20;75.80;;;;;;5081609;28;20206;-40
2024/01/07 02:30:40;;;;;;;0.00;0.00;;;5.20;75.80;;;;;;5089066;28;20734;-39
2024/01/07 02:33:07;;;;;;;0.00;0.00;;;5.20;75.80;;;;;;5088259;28;20195;-39
2024/01/07 02:35:34;;;;;;;0.00;0.00;;;5.20;75.80;;;;;;5088726;28;20724;-39
2024/01/07 02:38:04;;;;;;;0.00;0.00;;;5.10;75.70;;;;;;5088801;28;20194;-39
2024/01/07 02:40:35;;;;;;;0.00;0.00;;;5.20;75.70;;;;;;5089147;28;20203;-39
2024/01/07 02:43:05;;;;;;;0.00;0.00;;;5.10;75.80;;;;;;5089136;28;20565;-39
2024/01/07 02:45:34;;;;;;;0.00;0.00;;;5.10;75.80;;;;;;5088748;28;20215;-40
2024/01/07 02:48:06;;;;;;;0.00;0.00;;;5.10;75.90;;;;;;5085671;28;20217;-39
2024/01/07 02:50:35;;;;;;;0.00;0.00;;;5.10;75.80;;;;;;5084784;28;20218;-39
2024/01/07 02:53:05;;;;;;;0.00;0.00;;;5.00;75.80;;;;;;5086687;28;20195;-38
2024/01/07 02:55:32;;;;;;;0.00;0.00;;;5.00;75.80;;;;;;5083730;28;20625;-39
2024/01/07 02:57:59;;;;;;;0.00;0.00;;;5.00;75.80;;;;;;5083371;28;20199;-40
2024/01/07 03:00:27;;;;;;;0.00;0.00;;;5.00;75.70;;;;;;5087752;28;20209;-40
2024/01/07 03:02:54;;;;;;;0.00;0.00;;;5.00;75.80;;;;;;5085743;28;20198;-39
2024/01/07 03:05:21;;;;;;;0.00;0.00;;;5.00;75.80;;;;;;5071314;28;20227;-40
2024/01/07 03:07:48;;;;;;;0.00;0.00;;;5.00;75.90;;;;;;5087189;28;20290;-40
2024/01/07 03:10:16;;;;;;;0.00;0.00;;;5.00;76.00;;;;;;5087461;28;20223;-39
2024/01/07 03:12:43;;;;;;;0.00;0.00;;;5.00;76.00;;;;;;5087978;28;20206;-40
2024/01/07 03:15:13;;;;;;;0.00;0.00;;;5.00;75.90;;;;;;5087541;28;20207;-40
2024/01/07 03:17:44;;;;;;;0.00;0.00;;;5.10;76.00;;;;;;5087441;28;20224;-40
2024/01/07 03:20:14;;;;;;;0.00;0.00;;;5.10;75.90;;;;;;5079370;28;20673;-40
2024/01/07 03:22:44;;;;;;;0.00;0.00;;;5.00;75.90;;;;;;5087156;28;20203;-39
2024/01/07 03:25:11;;;;;;;0.00;0.00;;;5.00;75.90;;;;;;5087220;28;20218;-40
2024/01/07 03:27:41;;;;;;;0.00;0.00;;;5.00;75.90;;;;;;5087334;28;20214;-40
2024/01/07 03:30:11;;;;;;;0.00;0.00;;;5.00;75.90;;;;;;5086999;28;20197;-39
2024/01/07 03:32:41;;;;;;;0.00;0.00;;;5.00;75.90;;;;;;5088435;28;20264;-39
2024/01/07 03:35:08;;;;;;;0.00;0.00;;;5.00;75.90;;;;;;5069103;28;20322;-39
2024/01/07 03:37:36;;;;;;;0.00;0.00;;;5.00;75.90;;;;;;5085010;28;20195;-39
2024/01/07 03:40:03;;;;;;;0.00;0.00;;;5.00;75.90;;;;;;5085583;28;20228;-39
2024/01/07 03:42:31;;;;;;;0.00;0.00;;;4.90;75.80;;;;;;5087202;28;20207;-39
2024/01/07 03:44:58;;;;;;;0.00;0.00;;;4.90;75.80;;;;;;5085783;28;20195;-39
2024/01/07 03:47:28;;;;;;;0.00;0.00;;;4.90;75.90;;;;;;5088759;28;20194;-39
2024/01/07 03:49:55;;;;;;;0.00;0.00;;;4.90;76.00;;;;;;5069476;28;20203;-39
2024/01/07 03:52:25;;;;;;;0.00;0.00;;;4.90;75.90;;;;;;5087316;28;20568;-39
2024/01/07 03:54:52;;;;;;;0.00;0.00;;;4.90;75.80;;;;;;5089183;28;20191;-39
2024/01/07 03:57:23;;;;;;;0.00;0.00;;;4.90;75.80;;;;;;5088832;28;20207;-39
2024/01/07 03:59:51;;;;;;;0.00;0.00;;;4.90;75.80;;;;;;5089959;28;20210;-39
2024/01/07 04:02:18;;;;;;;0.00;0.00;;;4.80;75.70;;;;;;5090302;28;20248;-39
2024/01/07 04:04:50;;;;;;;0.00;0.00;;;4.90;75.90;;;;;;5087094;28;20211;-39
2024/01/07 04:07:21;;;;;;;0.00;0.00;;;4.90;75.90;;;;;;5088000;28;20244;-39
2024/01/07 04:09:51;;;;;;;0.00;0.00;;;4.90;76.00;;;;;;5069989;28;20232;-38
2024/01/07 04:12:18;;;;;;;0.00;0.00;;;4.80;75.90;;;;;;5086810;28;20689;-39
2024/01/07 04:14:46;;;;;;;0.00;0.00;;;4.80;76.00;;;;;;5083893;28;20207;-39
2024/01/07 04:17:13;;;;;;;0.00;0.00;;;4.90;76.00;;;;;;5072898;28;20206;-39
2024/01/07 04:19:41;;;;;;;0.00;0.00;;;4.90;76.00;;;;;;5089681;28;20748;-39
2024/01/07 04:22:10;;;;;;;0.00;0.00;;;4.90;76.00;;;;;;5089431;28;20796;-39
2024/01/07 04:24:41;;;;;;;0.00;0.00;;;4.90;76.00;;;;;;5090026;28;20318;-39
2024/01/07 04:27:08;;;;;;;0.00;0.00;;;4.90;76.00;;;;;;5091573;28;20202;-39
2024/01/07 04:29:36;;;;;;;0.00;0.00;;;4.90;76.00;;;;;;5091304;28;20207;-39
2024/01/07 04:32:05;;;;;;;0.00;0.00;;;4.90;76.10;;;;;;5077875;28;20705;-39
2024/01/07 04:34:32;;;;;;;0.00;0.00;;;4.90;76.10;;;;;;5070963;28;20229;-40
2024/01/07 04:37:02;;;;;;;0.00;0.00;;;4.90;76.00;;;;;;5067080;28;20249;-39
2024/01/07 04:39:32;;;;;;;0.00;0.00;;;4.90;76.00;;;;;;5067338;28;20218;-40
2024/01/07 04:42:02;;;;;;;0.00;0.00;;;4.90;75.90;;;;;;5067108;28;20203;-40
2024/01/07 04:44:29;;;;;;;0.00;0.00;;;4.90;75.90;;;;;;5067747;28;20202;-40
2024/01/07 04:46:56;;;;;;;0.00;0.00;;;4.90;76.70;;;;;;5068685;28;20200;-40
2024/01/07 04:49:26;;;;;;;0.00;0.00;;;4.90;76.00;;;;;;5069776;28;20208;-40
2024/01/07 04:51:55;;;;;;;0.00;0.00;;;4.90;76.00;;;;;;5066876;28;20238;-42
2024/01/07 04:54:23;;;;;;;0.00;0.00;;;4.90;75.90;;;;;;5066942;28;20688;-39
2024/01/07 04:56:53;;;;;;;0.00;0.00;;;4.90;75.90;;;;;;5065058;28;20234;-40
2024/01/07 04:59:22;;;;;;;0.00;0.00;;;4.90;76.00;;;;;;5065156;28;20198;-39
2024/01/07 05:01:49;;;;;;;0.00;0.00;;;4.90;76.00;;;;;;5067365;28;20593;-39
2024/01/07 05:04:17;;;;;;;0.00;0.00;;;4.90;76.00;;;;;;5051246;28;20219;-40
2024/01/07 05:06:46;;;;;;;0.00;0.00;;;4.90;76.00;;;;;;5069477;28;20235;-40
2024/01/07 05:09:13;;;;;;;0.00;0.00;;;4.90;76.00;;;;;;5074273;28;20268;-40
2024/01/07 05:11:40;;;;;;;0.00;0.00;;;4.90;76.00;;;;;;5089772;28;20226;-40
2024/01/07 05:14:11;;;;;;;0.00;0.00;;;4.90;76.10;;;;;;5090657;28;20302;-39
2024/01/07 05:16:40;;;;;;;0.00;0.00;;;4.90;76.00;;;;;;5090376;28;20191;-40
2024/01/07 05:19:10;;;;;;;0.00;0.00;;;4.90;76.00;;;;;;5088066;28;20226;-40
2024/01/07 05:21:37;;;;;;;0.00;0.00;;;4.80;75.90;;;;;;5088118;28;20661;-40
2024/01/07 05:24:05;;;;;;;0.00;0.00;;;4.80;75.90;;;;;;5089521;28;20253;-39
2024/01/07 05:26:43;;;;;;;0.00;0.00;;;4.80;75.90;;;;;;5089677;28;20230;-40
2024/01/07 05:29:11;;;;;;;0.00;0.00;;;4.80;76.00;;;;;;5089619;28;20187;-40
2024/01/07 05:31:44;;;;;;;0.00;0.00;;;4.80;76.00;;;;;;5089562;28;20230;-40
2024/01/07 05:34:11;;;;;;;0.00;0.00;;;4.80;76.00;;;;;;5087704;28;21049;-40
2024/01/07 05:36:41;;;;;;;0.00;0.00;;;4.80;76.00;;;;;;5087178;28;20408;-40
2024/01/07 05:39:13;;;;;;;0.00;0.00;;;4.80;76.70;;;;;;5068072;28;20214;-39
2024/01/07 05:41:40;;;;;;;0.00;0.00;;;4.80;76.00;;;;;;5087598;28;20195;-39
2024/01/07 05:44:08;;;;;;;0.00;0.00;;;4.80;76.10;;;;;;5086113;28;20670;-39
2024/01/07 05:46:39;;;;;;;0.00;0.00;;;4.80;76.20;;;;;;5087202;28;20210;-39
2024/01/07 05:49:08;;;;;;;0.00;0.00;;;4.80;76.10;;;;;;5086439;28;20520;-40
2024/01/07 05:51:43;;;;;;;0.00;0.00;;;4.80;76.10;;;;;;5084087;28;20297;-39
2024/01/07 05:54:15;;;;;;;0.00;0.00;;;4.80;76.20;;;;;;5085768;28;20254;-40
2024/01/07 05:56:43;;;;;;;0.00;0.00;;;4.80;76.20;;;;;;5085022;28;20211;-39
2024/01/07 05:59:10;;;;;;;0.00;0.00;;;4.80;76.20;;;;;;5086996;28;20210;-40
2024/01/07 06:01:37;;;;;;;0.00;0.00;;;4.80;76.10;;;;;;5087174;28;20968;-40
2024/01/07 06:04:07;;;;;;;0.00;0.00;;;4.80;76.10;;;;;;5073702;28;20196;-40
2024/01/07 06:06:35;;;;;;;0.00;0.00;;;4.80;76.10;;;;;;5082041;28;20238;-39
2024/01/07 06:09:02;;;;;;;0.00;0.00;;;4.80;76.10;;;;;;5055915;28;20269;-39
2024/01/07 06:11:32;;;;;;;0.00;0.00;;;4.80;76.10;;;;;;5076382;28;20242;-39
2024/01/07 06:14:02;;;;;;;0.00;0.00;;;4.80;76.20;;;;;;5083409;28;20200;-40
2024/01/07 06:16:29;;;;;;;0.00;0.00;;;4.90;76.30;;;;;;5069198;28;20215;-40
2024/01/07 06:18:56;;;;;;;0.00;0.00;;;4.90;76.20;;;;;;5068555;28;20203;-39
2024/01/07 06:21:23;;;;;;;0.00;0.00;;;4.90;76.20;;;;;;5078133;28;20222;-40
2024/01/07 06:23:55;;;;;;;0.00;0.00;;;4.90;76.20;;;;;;5086137;28;20207;-40
2024/01/07 06:26:25;;;;;;;0.00;0.00;;;4.90;76.30;;;;;;5078343;28;20301;-40
2024/01/07 06:28:53;;;;;;;0.00;0.00;;;4.90;76.20;;;;;;5073123;28;20245;-40
2024/01/07 06:31:20;;;;;;;0.00;0.00;;;4.90;76.20;;;;;;5068791;28;20248;-39
2024/01/07 06:33:47;;;;;;;0.00;0.00;;;4.90;76.20;;;;;;5067468;28;20326;-39
2024/01/07 06:36:15;;;;;;;0.00;0.00;;;4.90;76.20;;;;;;5064740;28;20199;-39
2024/01/07 06:38:44;;;;;;;0.00;0.00;;;4.90;76.20;;;;;;5052808;28;20199;-39
2024/01/07 06:41:12;;;;;;;0.00;0.00;;;4.90;76.30;;;;;;5076413;28;20237;-40
2024/01/07 06:43:42;;;;;;;0.00;0.00;;;4.90;76.40;;;;;;5079158;28;20322;-40
2024/01/07 06:46:10;;;;;;;0.00;0.00;;;4.90;76.40;;;;;;5079663;28;20210;-39
2024/01/07 06:48:37;;;;;;;0.00;0.00;;;4.90;76.30;;;;;;5080764;28;20198;-39
2024/01/07 06:51:10;;;;;;;0.00;0.00;;;4.90;76.30;;;;;;5079179;28;20276;-39
2024/01/07 06:53:40;;;;;;;0.00;0.00;;;4.90;76.30;;;;;;5080599;28;20748;-39
2024/01/07 06:56:07;;;;;;;0.00;0.00;;;4.90;76.40;;;;;;5076237;28;20206;-39
2024/01/07 06:58:37;;;;;;;0.00;0.00;;;4.90;76.30;;;;;;5069070;28;20226;-39
2024/01/07 07:01:09;;;;;;;0.00;0.00;;;4.90;76.30;;;;;;5080432;28;20208;-40
2024/01/07 07:03:42;;;;;;;0.00;0.00;;;4.90;76.40;;;;;;5067622;28;20217;-39
2024/01/07 07:06:14;;;;;;;0.00;0.00;;;4.90;76.40;;;;;;5073883;28;20787;-38
2024/01/07 07:08:41;;;;;;;0.00;0.00;;;4.90;76.50;;;;;;5072241;28;20221;-39
2024/01/07 07:11:13;;;;;;;0.00;0.00;;;4.90;76.40;;;;;;5074240;28;20195;-39
2024/01/07 07:13:43;;;;;;;0.00;0.00;;;4.90;76.40;;;;;;5079809;28;20203;-39
2024/01/07 07:16:10;;;;;;;0.00;0.00;;;4.90;76.50;;;;;;5078420;28;20215;-39
2024/01/07 07:18:40;;;;;;;0.00;0.00;;;4.90;76.40;;;;;;5085778;28;20329;-40
2024/01/07 07:21:09;;;;;;;0.00;0.00;;;4.90;76.50;;;;;;5088360;28;20665;-39
2024/01/07 07:23:39;;;;;;;0.00;0.00;;;4.90;76.40;;;;;;5080783;28;20207;-39
2024/01/07 07:26:08;;;;;;;0.00;0.00;;;4.90;76.40;;;;;;5081230;28;20206;-39
2024/01/07 07:28:35;;;;;;;0.00;0.00;;;4.90;76.40;;;;;;5087944;28;20203;-40
2024/01/07 07:31:02;;;;;;;0.00;0.00;;;4.90;76.50;;;;;;5091173;28;20219;-39
2024/01/07 07:33:30;;;;;;;0.00;0.00;;;4.80;76.30;;;;;;5088235;28;20187;-39
2024/01/07 07:36:00;;;;;;;0.00;0.00;;;4.80;76.30;;;;;;5070160;28;20281;-39
2024/01/07 07:38:27;;;;;;;0.00;0.00;;;4.80;76.40;;;;;;5086411;28;20210;-39
2024/01/07 07:40:56;;;;;;;0.00;0.00;;;4.80;76.40;;;;;;5086440;28;20191;-39
2024/01/07 07:43:24;;;;;;;0.00;0.00;;;4.80;76.50;;;;;;5091135;28;20285;-40
2024/01/07 07:45:52;;;;;;;0.00;0.00;;;4.80;76.60;;;;;;5090097;28;20586;-39
2024/01/07 07:48:19;;;;;;;0.00;0.00;;;4.80;76.60;;;;;;5088004;28;20195;-39
2024/01/07 07:50:46;;;;;;;0.00;0.00;;;4.90;76.60;;;;;;5086801;28;20202;-40
2024/01/07 07:53:13;;;;;;;0.00;0.00;;;4.90;76.50;;;;;;5071037;28;20408;-40
2024/01/07 07:55:41;;;;;;;0.00;0.00;;;4.90;76.50;;;;;;5090921;28;20233;-39
2024/01/07 07:58:10;;;;;;;0.00;0.00;;;4.90;76.50;;;;;;5091743;28;20570;-40
2024/01/07 08:00:45;;;;;;;0.00;0.00;;;4.90;76.50;;;;;;5089897;28;20222;-39
2024/01/07 08:03:12;;;;;;;0.00;0.00;;;4.90;76.50;;;;;;5090128;28;20226;-39
2024/01/07 08:05:41;;;;;;;0.00;0.00;;;4.90;76.50;;;;;;5088341;28;20866;-39
2024/01/07 08:08:11;;;;;;;0.00;0.00;;;4.80;76.40;;;;;;5088988;28;20242;-39
2024/01/07 08:10:41;;;;;;;0.00;0.00;;;4.80;76.40;;;;;;5089454;28;20547;-40
2024/01/07 08:13:10;;;;;;;0.00;0.00;;;4.80;76.40;;;;;;5070737;28;20292;-40
2024/01/07 08:15:39;;;;;;;0.00;0.00;;;4.80;76.40;;;;;;5087725;28;20183;-40
2024/01/07 08:18:09;;;;;;;0.00;0.00;;;4.80;76.40;;;;;;5087994;28;20195;-39
2024/01/07 08:20:39;;;;;;;0.00;0.00;;;4.80;76.30;;;;;;5085745;28;20203;-39
2024/01/07 08:23:08;;;;;;;0.00;0.00;;;4.80;76.30;;;;;;5084594;28;20190;-39
2024/01/07 08:25:36;;;;;;;0.00;0.00;;;4.80;76.60;;;;;;5083233;28;20255;-39
2024/01/07 08:28:05;;;;;;;0.00;0.00;;;4.80;76.40;;;;;;5065669;28;20733;-39
2024/01/07 08:30:36;;;;;;;0.00;0.00;;;4.80;76.30;;;;;;5071605;28;20657;-39
2024/01/07 08:33:03;;;;;;;0.00;0.00;;;4.70;76.20;;;;;;5079847;28;20227;-40
2024/01/07 08:35:30;;;;;;;0.00;0.00;;;4.70;76.30;;;;;;5079912;28;20313;-39
2024/01/07 08:37:57;;;;;;;0.00;0.00;;;4.70;76.30;;;;;;5081555;28;20272;-39
2024/01/07 08:40:29;;;;;;;0.00;0.00;;;4.70;76.50;;;;;;5085482;28;20214;-39
2024/01/07 08:42:56;;;;;;;0.00;0.00;;;4.70;76.30;;;;;;5085659;28;20252;-39
2024/01/07 08:45:24;;;;;;;0.00;0.00;;;4.70;76.30;;;;;;5082732;28;20853;-39
2024/01/07 08:47:51;;;;;;;0.00;0.00;;;4.70;76.30;;;;;;5072438;28;20222;-39
2024/01/07 08:50:18;;;;;;;0.00;0.00;;;4.70;76.40;;;;;;5069180;28;20199;-39
2024/01/07 08:52:46;;;;;;;0.00;0.00;;;4.70;76.30;;;;;;5087597;28;20223;-39
2024/01/07 08:55:15;;;;;;;0.00;0.00;;;4.70;76.30;;;;;;5075343;28;20806;-40
2024/01/07 08:57:48;;;;;;;0.00;0.00;;;4.70;76.40;;;;;;5090971;28;20207;-39
2024/01/07 09:00:16;;;;;;;0.00;0.00;;;4.70;76.30;;;;;;5088435;28;20669;-27
2024/01/07 09:02:44;;;;;;;0.00;0.00;;;4.70;76.30;;;;;;5083289;28;20214;-26
2024/01/07 09:05:13;;;;;;;0.00;0.00;;;4.70;76.40;;;;;;5085803;28;20809;-26
2024/01/07 09:07:43;;;;;;;0.00;0.00;;;4.70;76.50;;;;;;5087830;28;20198;-26
2024/01/07 09:10:12;;;;;;;0.00;0.00;;;4.70;76.50;;;;;;5082341;28;20234;-26
2024/01/07 09:12:40;;;;;;;0.00;0.00;;;4.70;76.40;;;;;;5086685;28;20614;-26
2024/01/07 09:15:07;;;;;;;0.00;0.00;;;4.70;76.30;;;;;;5083262;28;20721;-26
2024/01/07 09:17:36;;;;;;;0.00;0.00;;;4.70;76.30;;;;;;5083531;28;20700;-26
2024/01/07 09:20:07;;;;;;;0.00;0.00;;;4.70;76.30;;;;;;5084030;28;20296;-26
2024/01/07 09:22:40;;;;;;;0.00;0.00;;;4.70;76.30;;;;;;5086507;28;20209;-26
2024/01/07 09:25:11;;;;;;;0.00;0.00;;;4.70;76.20;;;;;;5067519;28;20195;-26
2024/01/07 09:27:38;;;;;;;0.00;0.00;;;4.70;76.20;;;;;;5087686;28;20560;-27
2024/01/07 09:30:10;;;;;;;0.00;0.00;;;4.70;76.20;;;;;;5088345;28;20259;-26
2024/01/07 09:32:41;;;;;;;0.00;0.00;;;4.70;76.20;;;;;;5084015;28;20266;-26
2024/01/07 09:35:10;;;;;;;0.00;0.00;;;4.70;76.20;;;;;;5083561;28;20214;-26
2024/01/07 09:37:37;;;;;;;0.00;0.00;;;4.70;76.10;;;;;;5088827;28;20202;-26
2024/01/07 09:40:10;;;;;;;0.00;0.00;;;4.60;76.00;;;;;;5087294;28;20218;-26
2024/01/07 09:42:40;;;;;;;0.00;0.00;;;4.60;76.00;;;;;;5087939;28;20225;-27
2024/01/07 09:45:07;;;;;;;0.00;0.00;;;4.60;76.10;;;;;;5088171;28;20199;-26
2024/01/07 09:47:37;;;;;;;0.00;0.00;;;4.60;76.10;;;;;;5087251;28;20202;-26
2024/01/07 09:50:09;;;;;;;0.00;0.00;;;4.50;76.10;;;;;;5085441;28;20237;-26
2024/01/07 09:52:44;;;;;;;0.00;0.00;;;4.50;76.20;;;;;;5081948;28;20368;-26
2024/01/07 09:55:30;;;;;;;0.00;0.00;;;4.50;76.20;;;;;;5077742;28;20191;-26
2024/01/07 09:57:57;;;;;;;0.00;0.00;;;4.50;76.20;;;;;;5065332;28;20310;-26
2024/01/07 10:00:27;;;;;;;0.00;0.00;;;4.50;76.10;;;;;;5066950;28;20279;-39
2024/01/07 10:02:55;;;;;;;0.00;0.00;;;4.40;76.10;;;;;;5085801;28;20211;-39
2024/01/07 10:05:22;;;;;;;0.00;0.00;;;4.50;76.20;;;;;;5084638;28;20250;-40
2024/01/07 10:07:49;;;;;;;0.00;0.00;;;4.40;76.20;;;;;;5084935;28;20400;-40
2024/01/07 10:10:21;;;;;;;0.00;0.00;;;4.40;76.20;;;;;;5085091;28;20214;-40
2024/01/07 10:12:52;;;;;;;0.00;0.00;;;4.50;76.20;;;;;;5082647;28;20367;-40
2024/01/07 10:15:20;;;;;;;0.00;0.00;;;4.40;76.90;;;;;;5085012;28;20220;-39
2024/01/07 10:17:55;;;;;;;0.00;0.00;;;4.40;76.10;;;;;;5079186;28;20249;-40
2024/01/07 10:20:24;;;;;;;0.00;0.00;;;4.40;76.10;;;;;;5083518;28;20230;-40
2024/01/07 10:22:52;;;;;;;0.00;0.00;;;4.40;76.10;;;;;;5080673;28;20736;-40
2024/01/07 10:25:19;;;;;;;0.00;0.00;;;4.40;76.20;;;;;;5085986;28;20206;-40
2024/01/07 10:27:49;;;;;;;0.00;0.00;;;4.40;76.20;;;;;;5087055;28;20542;-40
2024/01/07 10:30:19;;;;;;;0.00;0.00;;;4.50;76.30;;;;;;5089583;28;20206;-40
2024/01/07 10:32:48;;;;;;;0.00;0.00;;;4.50;76.20;;;;;;5087084;28;20695;-40
2024/01/07 10:35:21;;;;;;;0.00;0.00;;;4.40;76.10;;;;;;5086742;28;20213;-40
2024/01/07 10:37:51;;;;;;;0.00;0.00;;;4.40;76.10;;;;;;5086579;28;20191;-40
2024/01/07 10:40:23;;;;;;;0.00;0.00;;;4.40;76.00;;;;;;5082425;28;20579;-40
2024/01/07 10:42:54;;;;;;;0.00;0.00;;;4.40;76.10;;;;;;5085361;28;20305;-40
2024/01/07 10:45:22;;;;;;;0.00;0.00;;;4.40;76.20;;;;;;5083688;28;20290;-40
2024/01/07 10:47:51;;;;;;;0.00;0.00;;;4.40;76.30;;;;;;5077678;28;20198;-40
2024/01/07 10:50:21;;;;;;;0.00;0.00;;;4.40;76.00;;;;;;5083517;28;20302;-40
2024/01/07 10:52:57;;;;;;;0.00;0.00;;;4.50;76.20;;;;;;5077221;28;20222;-40
2024/01/07 10:55:28;;;;;;;0.00;0.00;;;4.40;76.10;;;;;;5083877;28;20203;-39
2024/01/07 10:57:57;;;;;;;0.00;0.00;;;4.40;76.10;;;;;;5088721;28;20214;-39
2024/01/07 11:00:27;;;;;;;0.00;0.00;;;4.40;75.90;;;;;;5088961;28;20927;-39
2024/01/07 11:03:14;;;;;;;0.00;0.00;;;4.40;75.90;;;;;;5085663;28;20207;-40
2024/01/07 11:05:52;;;;;;;0.00;0.00;;;4.30;75.90;;;;;;5084705;28;20239;-39
2024/01/07 11:08:28;;;;;;;0.00;0.00;;;4.30;75.90;;;;;;5077913;28;20205;-40
2024/01/07 11:11:03;;;;;;;0.00;0.00;;;4.30;75.90;;;;;;5081528;28;20217;-39
2024/01/07 11:13:40;;;;;;;0.00;0.00;;;4.20;75.90;;;;;;5084682;28;20770;-40
2024/01/07 11:16:11;;;;;;;0.00;0.00;;;4.20;75.90;;;;;;5079624;28;20847;-40
2024/01/07 11:18:52;;;;;;;0.00;0.00;;;4.20;76.00;;;;;;5081491;28;20201;-40
2024/01/07 11:21:24;;;;;;;0.00;0.00;;;4.20;76.10;;;;;;5082495;28;20214;-40
2024/01/07 11:23:53;;;;;;;0.00;0.00;;;4.20;76.10;;;;;;5075489;28;20691;-39
2024/01/07 11:26:20;;;;;;;0.00;0.00;;;4.20;76.10;;;;;;5075404;28;20252;-39
2024/01/07 11:28:58;;;;;;;0.00;0.00;;;4.20;76.20;;;;;;5087002;28;20195;-39
2024/01/07 11:31:47;;;;;;;0.00;0.00;;;4.20;76.20;;;;;;5087002;28;20384;-39
2024/01/07 11:34:43;;;;;;;0.00;0.00;;;4.10;76.10;;;;;;5087678;28;20323;-39
2024/01/07 11:37:12;;;;;;;0.00;0.00;;;4.20;76.30;;;;;;5078968;28;20311;-39
2024/01/07 11:39:47;;;;;;;0.00;0.00;;;4.20;76.30;;;;;;5084501;28;20250;-39
2024/01/07 11:42:20;;;;;;;0.00;0.00;;;4.20;76.30;;;;;;5081726;28;20676;-39
2024/01/07 11:44:54;;;;;;;0.00;0.00;;;4.20;76.20;;;;;;5082781;28;20210;-40
2024/01/07 11:47:23;;;;;;;0.00;0.00;;;4.20;76.20;;;;;;5078760;28;20199;-39
2024/01/07 11:49:53;;;;;;;0.00;0.00;;;4.20;76.10;;;;;;5079583;28;20210;-39
2024/01/07 11:52:21;;;;;;;0.00;0.00;;;4.10;76.00;;;;;;5081607;28;20322;-39
2024/01/07 11:54:56;;;;;;;0.00;0.00;;;4.10;76.00;;;;;;5087679;28;20607;-39
2024/01/07 11:57:23;;;;;;;0.00;0.00;;;4.10;76.10;;;;;;5082218;28;20237;-40
2024/01/07 11:59:50;;;;;;;0.00;0.00;;;4.10;76.10;;;;;;5087044;28;20205;-40
2024/01/07 12:02:19;;;;;;;0.00;0.00;;;4.10;76.20;;;;;;5083762;28;20199;-39
2024/01/07 12:04:47;;;;;;;0.00;0.00;;;4.10;76.20;;;;;;5083808;28;20202;-40
2024/01/07 12:07:14;;;;;;;0.00;0.00;;;4.10;76.20;;;;;;5084228;28;20266;-39
2024/01/07 12:09:44;;;;;;;0.00;0.00;;;4.10;76.20;;;;;;5089733;28;20217;-40
2024/01/07 12:12:14;;;;;;;0.00;0.00;;;4.10;76.20;;;;;;5083683;28;20206;-40
2024/01/07 12:14:41;;;;;;;0.00;0.00;;;4.10;76.20;;;;;;5087505;28;20216;-40
2024/01/07 12:17:11;;;;;;;0.00;0.00;;;4.10;76.20;;;;;;5073679;28;20210;-40
2024/01/07 12:19:40;;;;;;;0.00;0.00;;;4.10;76.20;;;;;;5085682;28;20837;-40
2024/01/07 12:22:10;;;;;;;0.00;0.00;;;4.10;76.10;;;;;;5089475;28;20604;-40
2024/01/07 12:24:40;;;;;;;0.00;0.00;;;4.20;76.10;;;;;;5073997;28;20203;-39
2024/01/07 12:27:07;;;;;;;0.00;0.00;;;4.10;76.10;;;;;;5088689;28;20217;-39
2024/01/07 12:29:34;;;;;;;0.00;0.00;;;4.10;76.10;;;;;;5089116;28;20199;-38
2024/01/07 12:32:02;;;;;;;0.00;0.00;;;4.10;76.20;;;;;;5084632;28;20226;-39
2024/01/07 12:34:33;;;;;;;0.00;0.00;;;4.10;76.20;;;;;;5086393;28;20227;-39
2024/01/07 12:37:01;;;;;;;0.00;0.00;;;4.10;76.00;;;;;;5088042;28;20305;-39
2024/01/07 12:39:29;;;;;;;0.00;0.00;;;4.00;75.90;;;;;;5088632;28;20278;-38
2024/01/07 12:41:57;;;;;;;0.00;0.00;;;4.00;76.00;;;;;;5085648;28;20222;-37
2024/01/07 12:44:27;;;;;;;0.00;0.00;;;4.00;76.00;;;;;;5088638;28;20269;-40
2024/01/07 12:46:55;;;;;;;0.00;0.00;;;4.00;76.00;;;;;;5089887;28;20195;-39
2024/01/07 12:49:27;;;;;;;0.00;0.00;;;4.00;76.00;;;;;;5086922;28;20207;-39
2024/01/07 12:51:56;;;;;;;0.00;0.00;;;4.00;76.10;;;;;;5087474;28;20211;-37
2024/01/07 12:54:24;;;;;;;0.00;0.00;;;4.00;76.00;;;;;;5085237;28;20219;-38
2024/01/07 12:56:54;;;;;;;0.00;0.00;;;4.00;75.90;;;;;;5087312;28;20690;-38
2024/01/07 12:59:21;;;;;;;0.00;0.00;;;4.00;76.00;;;;;;5087779;28;20191;-38
2024/01/07 13:01:50;;;;;;;0.00;0.00;;;4.00;76.00;;;;;;5087996;28;20215;-38
2024/01/07 13:04:19;;;;;;;0.00;0.00;;;4.00;76.00;;;;;;5083070;28;20275;-38
2024/01/07 13:06:46;;;;;;;0.00;0.00;;;4.00;76.00;;;;;;5087230;28;20261;-38
2024/01/07 13:09:14;;;;;;;0.00;0.00;;;4.00;76.00;;;;;;5081840;28;20705;-38